Time;durP1;ratioP1;P1;durP2;ratioP2;P2;SDS_P1;SDS_P2;PMS_P1;PMS_P2;Temp;Humidity;BMP_temperature;BMP_pressure;BME280_temperature;BME280_humidity;BME280_pressure;Samples;Min_cycle;Max_cycle;Signal;HPM_P1;HPM_P2
2022/05/07 00:02:13;;;;;;;8.80;5.68;;;16.30;99.90;;;;;;5055182;28;20233;-76
2022/05/07 00:04:39;;;;;;;9.30;6.07;;;16.30;99.90;;;;;;5072878;28;20778;-75
2022/05/07 00:07:05;;;;;;;7.13;5.25;;;16.30;99.90;;;;;;5064667;28;20286;-71
2022/05/07 00:09:32;;;;;;;6.88;4.80;;;16.10;99.90;;;;;;5064184;28;20204;-71
2022/05/07 00:11:58;;;;;;;8.70;5.97;;;16.10;99.90;;;;;;5065447;28;20202;-70
2022/05/07 00:14:23;;;;;;;7.45;5.20;;;16.10;99.90;;;;;;5064575;28;20540;-71
2022/05/07 00:19:33;;;;;;;5.53;4.95;;;16.10;99.90;;;;;;5064407;28;20218;-70
2022/05/07 00:21:58;;;;;;;6.30;4.68;;;16.10;99.90;;;;;;5066816;28;20206;-71
2022/05/07 00:24:24;;;;;;;7.95;4.60;;;16.10;99.90;;;;;;5069740;28;20227;-71
2022/05/07 00:26:50;;;;;;;6.10;4.72;;;16.10;99.90;;;;;;5072800;28;20179;-71
2022/05/07 00:29:15;;;;;;;8.00;5.07;;;16.10;99.90;;;;;;5071074;28;20171;-71
2022/05/07 00:31:41;;;;;;;9.52;5.97;;;16.10;99.90;;;;;;5072307;28;20211;-71
2022/05/07 00:34:06;;;;;;;7.45;4.07;;;16.00;99.90;;;;;;5072583;28;20196;-71
2022/05/07 00:36:33;;;;;;;7.32;4.70;;;15.90;99.90;;;;;;5072913;28;20717;-71
2022/05/07 00:38:59;;;;;;;8.35;5.13;;;16.00;99.90;;;;;;5070529;28;20185;-71
2022/05/07 00:41:24;;;;;;;7.68;4.35;;;16.00;99.90;;;;;;5072633;28;20620;-71
2022/05/07 00:43:50;;;;;;;6.28;4.35;;;16.00;99.90;;;;;;5072421;28;20207;-70
2022/05/07 00:46:16;;;;;;;5.90;4.40;;;16.00;99.90;;;;;;5072147;28;20199;-71
2022/05/07 00:48:42;;;;;;;7.03;4.80;;;16.10;99.90;;;;;;5071564;28;20199;-71
2022/05/07 00:53:53;;;;;;;6.47;4.53;;;16.00;99.90;;;;;;5065229;28;20190;-70
2022/05/07 00:56:19;;;;;;;6.88;4.40;;;16.00;99.90;;;;;;5072696;28;20183;-71
2022/05/07 00:58:45;;;;;;;6.22;4.50;;;15.90;99.90;;;;;;5069748;28;20222;-71
2022/05/07 01:01:10;;;;;;;5.68;4.13;;;15.90;99.90;;;;;;5071956;28;20241;-70
2022/05/07 01:03:36;;;;;;;7.13;4.93;;;15.90;99.90;;;;;;5071824;28;20256;-70
2022/05/07 01:06:02;;;;;;;7.93;5.35;;;15.90;99.90;;;;;;5072119;28;20221;-71
2022/05/07 01:08:29;;;;;;;10.27;5.45;;;15.90;99.90;;;;;;5071572;28;20174;-70
2022/05/07 01:10:56;;;;;;;7.22;5.03;;;16.00;99.90;;;;;;5071856;28;20692;-71
2022/05/07 01:13:22;;;;;;;4.82;3.95;;;16.00;99.90;;;;;;5071556;28;20254;-71
2022/05/07 01:15:53;;;;;;;6.53;4.53;;;16.00;99.90;;;;;;5071627;28;20274;-71
2022/05/07 01:18:18;;;;;;;8.52;4.55;;;16.10;99.90;;;;;;5071063;28;20695;-71
2022/05/07 01:20:44;;;;;;;6.72;4.35;;;16.10;99.90;;;;;;5071886;28;20244;-70
2022/05/07 01:23:10;;;;;;;6.20;4.43;;;16.10;99.90;;;;;;5071606;28;20199;-71
2022/05/07 01:25:35;;;;;;;5.65;4.93;;;16.10;99.90;;;;;;5070153;28;20211;-71
2022/05/07 01:28:01;;;;;;;6.30;4.30;;;16.10;99.90;;;;;;5070507;28;20703;-70
2022/05/07 01:30:27;;;;;;;7.22;4.80;;;16.10;99.90;;;;;;5071300;28;20215;-71
2022/05/07 01:32:53;;;;;;;6.07;4.70;;;16.10;99.90;;;;;;5071674;28;20258;-71
2022/05/07 01:35:18;;;;;;;9.38;4.65;;;16.00;99.90;;;;;;5072050;28;20190;-70
2022/05/07 01:37:44;;;;;;;7.00;4.53;;;16.10;99.90;;;;;;5070904;28;20203;-71
2022/05/07 01:40:11;;;;;;;6.43;4.40;;;16.10;99.90;;;;;;5070646;28;20256;-70
2022/05/07 01:42:37;;;;;;;9.18;4.40;;;16.00;99.90;;;;;;5070996;28;20237;-71
2022/05/07 01:45:03;;;;;;;7.82;4.20;;;16.00;99.90;;;;;;5071403;28;20175;-72
2022/05/07 01:50:12;;;;;;;6.47;4.68;;;16.00;99.90;;;;;;5070817;28;20214;-71
2022/05/07 01:52:38;;;;;;;8.20;4.47;;;15.90;99.90;;;;;;5069744;28;20211;-71
2022/05/07 01:55:04;;;;;;;6.32;4.70;;;15.90;99.90;;;;;;5070876;28;20203;-71
2022/05/07 01:57:30;;;;;;;7.38;5.07;;;16.00;99.90;;;;;;5071021;28;20674;-71
2022/05/07 01:59:56;;;;;;;6.32;5.25;;;15.90;99.90;;;;;;5070093;28;20179;-71
2022/05/07 02:02:21;;;;;;;6.15;4.40;;;15.90;99.90;;;;;;5071374;28;20666;-71
2022/05/07 02:04:47;;;;;;;7.97;5.10;;;15.80;99.90;;;;;;5070878;28;20210;-71
2022/05/07 02:07:12;;;;;;;7.03;4.72;;;15.80;99.90;;;;;;5070701;28;20230;-71
2022/05/07 02:09:38;;;;;;;5.15;4.65;;;15.90;99.90;;;;;;5070016;28;20294;-71
2022/05/07 02:12:04;;;;;;;8.00;4.65;;;15.80;99.90;;;;;;5070875;28;20195;-71
2022/05/07 02:14:29;;;;;;;8.57;4.53;;;15.80;99.90;;;;;;5071144;28;20249;-71
2022/05/07 02:16:55;;;;;;;5.47;4.28;;;15.70;99.90;;;;;;5069678;28;20223;-71
2022/05/07 02:19:21;;;;;;;7.55;4.80;;;15.70;99.90;;;;;;5069937;28;20221;-71
2022/05/07 02:21:46;;;;;;;4.75;4.10;;;15.60;99.90;;;;;;5070711;28;20297;-71
2022/05/07 02:24:12;;;;;;;5.53;4.22;;;15.50;99.90;;;;;;5069309;28;20207;-71
2022/05/07 02:26:38;;;;;;;5.85;4.50;;;15.60;99.90;;;;;;5071104;28;20564;-70
2022/05/07 02:29:03;;;;;;;5.75;4.00;;;15.50;99.90;;;;;;5070205;28;20222;-70
2022/05/07 02:31:29;;;;;;;5.15;4.53;;;15.60;99.90;;;;;;5070661;28;20214;-70
2022/05/07 02:33:55;;;;;;;6.07;4.38;;;15.50;99.90;;;;;;5070826;28;20675;-71
2022/05/07 02:36:20;;;;;;;9.40;4.18;;;15.50;99.90;;;;;;5070898;28;20199;-71
2022/05/07 02:38:46;;;;;;;4.75;3.90;;;15.60;99.90;;;;;;5070316;28;20651;-70
2022/05/07 02:43:55;;;;;;;7.32;4.18;;;15.70;99.90;;;;;;5064138;28;20228;-71
2022/05/07 02:46:21;;;;;;;6.43;4.30;;;15.80;99.90;;;;;;5058810;28;21131;-71
2022/05/07 02:48:47;;;;;;;4.97;4.15;;;15.70;99.90;;;;;;5089824;28;20190;-70
2022/05/07 02:51:13;;;;;;;6.35;4.47;;;15.80;99.90;;;;;;5090395;28;20202;-70
2022/05/07 02:53:38;;;;;;;9.10;4.68;;;15.80;99.90;;;;;;5090754;28;20533;-70
2022/05/07 02:56:04;;;;;;;6.90;4.25;;;15.80;99.90;;;;;;5089222;28;20198;-70
2022/05/07 02:58:30;;;;;;;4.97;4.00;;;15.90;99.90;;;;;;5088264;28;20194;-70
2022/05/07 03:00:56;;;;;;;7.72;4.15;;;15.90;99.90;;;;;;5090130;28;20213;-70
2022/05/07 03:03:21;;;;;;;6.63;4.10;;;15.80;99.90;;;;;;5090187;28;20206;-70
2022/05/07 03:05:47;;;;;;;6.35;4.53;;;15.70;99.90;;;;;;5089721;28;20215;-70
2022/05/07 03:08:12;;;;;;;6.40;4.30;;;15.80;99.90;;;;;;5089751;28;20683;-70
2022/05/07 03:10:38;;;;;;;8.45;4.80;;;15.80;99.90;;;;;;5089997;28;20255;-70
2022/05/07 03:13:03;;;;;;;5.13;4.07;;;15.70;99.90;;;;;;5090402;28;20206;-71
2022/05/07 03:15:29;;;;;;;6.10;4.43;;;15.70;99.90;;;;;;5085068;28;20627;-70
2022/05/07 03:17:54;;;;;;;6.35;4.25;;;15.70;99.90;;;;;;5086161;28;20181;-70
2022/05/07 03:20:20;;;;;;;6.70;4.55;;;15.70;99.90;;;;;;5094010;28;20194;-70
2022/05/07 03:22:45;;;;;;;5.50;4.28;;;15.70;99.90;;;;;;5093807;28;20234;-70
2022/05/07 03:25:12;;;;;;;8.48;4.78;;;15.70;99.90;;;;;;5094014;28;20198;-70
2022/05/07 03:27:37;;;;;;;4.90;4.22;;;15.70;99.90;;;;;;5092313;28;20587;-70
2022/05/07 03:30:04;;;;;;;5.30;4.18;;;15.60;99.90;;;;;;5091854;28;20261;-71
2022/05/07 03:32:30;;;;;;;5.68;4.38;;;15.70;99.90;;;;;;5092677;28;20162;-70
2022/05/07 03:34:57;;;;;;;5.15;4.65;;;15.60;99.90;;;;;;5093826;28;20300;-71
2022/05/07 03:37:23;;;;;;;9.43;4.75;;;15.60;99.90;;;;;;5093237;28;20277;-70
2022/05/07 03:39:50;;;;;;;5.72;4.50;;;15.60;99.90;;;;;;5092844;28;20288;-71
2022/05/07 03:42:16;;;;;;;9.68;5.03;;;15.50;99.90;;;;;;5093686;28;20214;-71
2022/05/07 03:44:41;;;;;;;6.82;4.95;;;15.50;99.90;;;;;;5093849;28;20257;-70
2022/05/07 03:47:07;;;;;;;5.47;4.50;;;15.60;99.90;;;;;;5075718;28;20215;-71
2022/05/07 03:49:32;;;;;;;5.55;4.65;;;15.60;99.90;;;;;;5090792;28;20233;-70
2022/05/07 03:54:43;;;;;;;5.03;4.40;;;15.60;99.90;;;;;;5093198;28;20213;-71
2022/05/07 03:57:09;;;;;;;7.75;4.55;;;15.60;99.90;;;;;;5093642;28;20308;-71
2022/05/07 03:59:35;;;;;;;6.60;4.75;;;15.60;99.90;;;;;;5089421;28;20170;-70
2022/05/07 04:02:00;;;;;;;5.50;4.80;;;15.60;99.90;;;;;;5087076;28;20217;-71
2022/05/07 04:04:26;;;;;;;5.32;4.35;;;15.70;99.90;;;;;;5094177;28;20343;-70
2022/05/07 04:06:51;;;;;;;6.88;4.70;;;15.60;99.90;;;;;;5093310;28;20205;-69
2022/05/07 04:09:17;;;;;;;6.10;4.60;;;15.90;99.90;;;;;;5092414;28;20202;-70
2022/05/07 04:11:42;;;;;;;7.20;4.30;;;15.90;99.90;;;;;;5093549;28;20205;-70
2022/05/07 04:14:07;;;;;;;7.18;3.90;;;15.90;99.90;;;;;;5092118;28;20218;-70
2022/05/07 04:16:33;;;;;;;7.10;4.88;;;16.00;99.90;;;;;;5081695;28;20696;-71
2022/05/07 04:18:58;;;;;;;5.20;4.40;;;16.10;99.90;;;;;;5092722;28;20285;-70
2022/05/07 04:21:24;;;;;;;7.60;4.38;;;15.90;99.90;;;;;;5092994;28;20297;-70
2022/05/07 04:23:49;;;;;;;7.57;4.93;;;16.20;99.90;;;;;;5093236;28;20174;-72
2022/05/07 04:26:15;;;;;;;9.10;4.97;;;16.10;99.90;;;;;;5092105;28;20172;-71
2022/05/07 04:28:40;;;;;;;6.57;4.18;;;16.20;99.90;;;;;;5091044;28;20717;-70
2022/05/07 04:31:06;;;;;;;5.75;4.43;;;16.30;99.90;;;;;;5092846;28;20264;-70
2022/05/07 04:33:31;;;;;;;5.65;4.30;;;16.60;99.90;;;;;;5092720;28;20206;-70
2022/05/07 04:35:57;;;;;;;7.13;4.22;;;17.80;99.90;;;;;;5092975;28;20194;-69
2022/05/07 04:38:22;;;;;;;5.03;4.18;;;19.40;99.90;;;;;;5092188;28;20173;-70
2022/05/07 04:40:48;;;;;;;5.80;4.40;;;19.20;99.90;;;;;;5092827;28;20244;-71
2022/05/07 04:43:15;;;;;;;7.55;5.00;;;18.70;99.90;;;;;;5092528;28;20190;-71
2022/05/07 04:45:41;;;;;;;6.03;4.60;;;18.60;99.90;;;;;;5085617;28;20217;-70
2022/05/07 04:48:06;;;;;;;4.72;4.22;;;18.30;99.90;;;;;;5091551;28;20183;-71
2022/05/07 04:50:32;;;;;;;6.65;4.22;;;18.10;99.90;;;;;;5092939;28;20254;-71
2022/05/07 04:52:57;;;;;;;5.45;4.18;;;18.10;99.90;;;;;;5092673;28;20591;-71
2022/05/07 04:55:23;;;;;;;5.80;3.80;;;20.60;99.90;;;;;;5090878;28;20198;-70
2022/05/07 04:57:48;;;;;;;5.60;4.50;;;22.40;99.90;;;;;;5091967;28;20202;-70
2022/05/07 05:00:15;;;;;;;29.95;22.70;;;23.60;99.90;;;;;;5091648;28;20248;-70
2022/05/07 05:02:41;;;;;;;5.05;4.55;;;24.70;99.90;;;;;;5085879;28;20373;-72
2022/05/07 05:05:07;;;;;;;5.57;4.43;;;25.60;99.90;;;;;;5072890;28;20289;-71
2022/05/07 05:07:32;;;;;;;5.40;4.57;;;26.00;99.90;;;;;;5078850;28;20211;-72
2022/05/07 05:09:58;;;;;;;5.63;4.90;;;24.50;99.90;;;;;;5070209;28;20811;-71
2022/05/07 05:12:23;;;;;;;5.10;4.13;;;25.50;99.90;;;;;;5073457;28;20207;-72
2022/05/07 05:15:01;;;;;;;4.95;4.10;;;26.30;99.70;;;;;;5071762;28;20262;-72
2022/05/07 05:17:28;;;;;;;4.78;3.67;;;26.80;98.40;;;;;;5055146;28;20175;-71
2022/05/07 05:19:54;;;;;;;6.38;3.95;;;27.20;97.10;;;;;;5072061;28;20232;-72
2022/05/07 05:22:20;;;;;;;5.95;4.20;;;27.50;95.80;;;;;;5071652;28;20591;-73
2022/05/07 05:24:45;;;;;;;3.95;3.55;;;28.00;94.50;;;;;;5083295;28;20234;-74
2022/05/07 05:27:11;;;;;;;4.70;4.20;;;28.50;93.60;;;;;;5076151;28;20246;-73
2022/05/07 05:29:36;;;;;;;6.55;4.00;;;29.30;92.50;;;;;;5073162;28;20179;-71
2022/05/07 05:32:02;;;;;;;4.90;4.07;;;29.60;91.00;;;;;;5077755;28;20219;-71
2022/05/07 05:34:28;;;;;;;5.38;4.13;;;29.40;90.40;;;;;;5068835;28;20211;-73
2022/05/07 05:36:53;;;;;;;4.60;3.95;;;29.10;89.00;;;;;;5071347;28;20675;-73
2022/05/07 05:39:19;;;;;;;5.40;3.95;;;29.10;89.50;;;;;;5070328;28;20586;-71
2022/05/07 05:41:45;;;;;;;4.22;3.65;;;29.00;88.90;;;;;;5071425;28;20198;-72
2022/05/07 05:44:11;;;;;;;4.38;3.78;;;29.00;88.70;;;;;;5071021;28;20199;-70
2022/05/07 05:46:36;;;;;;;6.05;3.92;;;29.60;87.20;;;;;;5069738;28;20298;-71
2022/05/07 05:49:02;;;;;;;4.20;3.45;;;29.90;85.80;;;;;;5070489;28;20576;-71
2022/05/07 05:51:28;;;;;;;4.15;3.50;;;29.70;85.70;;;;;;5070784;28;20207;-72
2022/05/07 05:53:53;;;;;;;4.97;4.10;;;30.10;84.60;;;;;;5070630;28;20174;-71
2022/05/07 05:56:19;;;;;;;5.40;4.05;;;30.20;84.20;;;;;;5071231;28;20167;-71
2022/05/07 05:58:44;;;;;;;5.22;3.97;;;29.90;83.80;;;;;;5051859;28;20202;-72
2022/05/07 06:01:11;;;;;;;6.10;4.10;;;30.10;83.50;;;;;;5069119;28;20568;-72
2022/05/07 06:03:37;;;;;;;5.60;3.90;;;30.50;82.00;;;;;;5069520;28;20210;-71
2022/05/07 06:06:02;;;;;;;4.00;3.60;;;30.80;81.80;;;;;;5070714;28;20177;-72
2022/05/07 06:08:28;;;;;;;3.47;3.20;;;30.40;80.80;;;;;;5068921;28;20258;-71
2022/05/07 06:10:54;;;;;;;6.07;3.60;;;30.60;81.00;;;;;;5070668;28;20713;-72
2022/05/07 06:13:20;;;;;;;3.88;3.20;;;30.60;80.20;;;;;;5070710;28;20218;-70
2022/05/07 06:15:51;;;;;;;3.85;3.08;;;31.00;79.70;;;;;;5060985;28;20582;-72
2022/05/07 06:18:19;;;;;;;4.70;3.58;;;31.20;78.80;;;;;;5070142;28;20198;-72
2022/05/07 06:20:45;;;;;;;3.55;3.20;;;31.00;78.40;;;;;;5068393;28;20254;-72
2022/05/07 06:23:11;;;;;;;3.70;3.40;;;31.20;78.20;;;;;;5065597;28;20285;-72
2022/05/07 06:28:22;;;;;;;4.68;3.17;;;32.50;74.50;;;;;;5070130;28;20304;-72
2022/05/07 06:30:48;;;;;;;3.75;2.80;;;32.20;74.10;;;;;;5061258;28;20206;-72
2022/05/07 06:33:14;;;;;;;4.05;3.30;;;32.30;73.40;;;;;;5070987;28;20228;-72
2022/05/07 06:35:39;;;;;;;3.45;3.25;;;32.10;73.00;;;;;;5070895;28;20523;-72
2022/05/07 06:38:05;;;;;;;5.00;3.13;;;32.40;72.00;;;;;;5069859;28;20198;-72
2022/05/07 06:40:31;;;;;;;3.00;2.80;;;32.10;72.10;;;;;;5068608;28;20210;-72
2022/05/07 06:42:56;;;;;;;4.35;2.78;;;30.90;72.70;;;;;;5070472;28;20650;-71
2022/05/07 06:45:22;;;;;;;5.72;3.30;;;31.00;73.00;;;;;;5070512;28;20272;-71
2022/05/07 06:47:48;;;;;;;4.40;2.90;;;30.10;74.10;;;;;;5069433;28;20174;-72
2022/05/07 06:50:13;;;;;;;5.10;3.88;;;29.60;75.80;;;;;;5067033;28;20222;-71
2022/05/07 06:52:45;;;;;;;9.02;3.88;;;29.80;75.60;;;;;;5071693;28;20224;-72
2022/05/07 06:55:15;;;;;;;6.28;4.50;;;30.60;74.30;;;;;;5074136;28;20255;-71
2022/05/07 06:57:42;;;;;;;2.53;2.33;;;31.50;73.40;;;;;;5073266;28;20246;-71
2022/05/07 07:00:09;;;;;;;6.80;6.10;;;31.80;71.60;;;;;;5070368;28;20193;-71
2022/05/07 07:02:35;;;;;;;4.57;4.18;;;32.40;70.60;;;;;;5073159;28;20690;-70
2022/05/07 07:05:02;;;;;;;5.28;4.20;;;32.60;69.50;;;;;;5056257;28;20267;-74
2022/05/07 07:07:28;;;;;;;3.75;3.45;;;32.70;68.70;;;;;;5066252;28;20281;-76
2022/05/07 07:09:53;;;;;;;4.15;3.75;;;33.10;68.10;;;;;;5071115;28;20293;-78
2022/05/07 07:12:20;;;;;;;3.22;2.92;;;33.40;67.90;;;;;;5074091;28;20202;-79
2022/05/07 07:14:47;;;;;;;6.38;3.53;;;33.60;67.00;;;;;;5072696;28;20171;-75
2022/05/07 07:17:17;;;;;;;3.42;3.13;;;33.70;66.60;;;;;;5073779;28;20206;-74
2022/05/07 07:19:43;;;;;;;3.75;3.25;;;34.10;65.80;;;;;;5072772;28;20644;-74
2022/05/07 07:22:09;;;;;;;4.68;3.25;;;34.40;63.60;;;;;;5073345;28;20214;-74
2022/05/07 07:24:34;;;;;;;4.18;3.30;;;34.40;63.10;;;;;;5073353;28;20237;-74
2022/05/07 07:27:00;;;;;;;4.68;3.22;;;34.70;62.60;;;;;;5072969;28;20174;-73
2022/05/07 07:29:25;;;;;;;3.83;3.53;;;35.50;61.40;;;;;;5073362;28;20660;-73
2022/05/07 07:31:51;;;;;;;3.30;2.85;;;35.00;61.70;;;;;;5073729;28;20202;-76
2022/05/07 07:34:17;;;;;;;5.72;2.80;;;34.10;61.70;;;;;;5072397;28;20198;-77
2022/05/07 07:36:46;;;;;;;3.45;2.85;;;33.60;63.10;;;;;;5065192;28;20202;-76
2022/05/07 07:39:12;;;;;;;6.10;4.10;;;33.10;63.20;;;;;;5072321;28;20550;-76
2022/05/07 07:41:37;;;;;;;5.10;3.58;;;33.10;63.90;;;;;;5073714;28;20271;-74
2022/05/07 07:44:03;;;;;;;5.47;3.28;;;32.50;63.20;;;;;;5074875;28;20229;-76
2022/05/07 07:49:12;;;;;;;5.07;3.70;;;31.90;65.80;;;;;;5080350;28;20630;-75
2022/05/07 07:51:38;;;;;;;3.92;2.90;;;32.10;66.10;;;;;;5071377;28;20309;-74
2022/05/07 07:54:06;;;;;;;4.40;3.25;;;32.40;65.60;;;;;;5078585;28;20159;-75
2022/05/07 07:56:32;;;;;;;4.38;3.45;;;33.20;64.70;;;;;;5081845;28;20166;-76
2022/05/07 07:58:57;;;;;;;4.60;3.03;;;33.70;63.80;;;;;;5072529;28;20197;-77
2022/05/07 08:01:23;;;;;;;4.53;3.70;;;33.40;63.60;;;;;;5072536;28;20218;-77
2022/05/07 08:03:48;;;;;;;4.55;3.50;;;34.00;63.30;;;;;;5071743;28;20213;-72
2022/05/07 08:06:14;;;;;;;8.60;4.55;;;34.60;61.90;;;;;;5071166;28;20277;-73
2022/05/07 08:11:46;;;;;;;5.82;4.05;;;35.50;60.60;;;;;;5072100;28;20209;-72
2022/05/07 08:14:13;;;;;;;8.32;4.95;;;35.00;61.00;;;;;;5072647;28;20213;-73
2022/05/07 08:16:39;;;;;;;6.47;4.80;;;34.50;60.80;;;;;;5072833;28;20215;-71
2022/05/07 08:19:06;;;;;;;6.60;4.22;;;33.90;60.70;;;;;;5072694;28;20213;-72
2022/05/07 08:21:32;;;;;;;8.73;6.13;;;33.10;62.00;;;;;;5072524;28;20226;-72
2022/05/07 08:23:57;;;;;;;8.38;5.90;;;32.80;63.40;;;;;;5072687;28;20266;-73
2022/05/07 08:26:24;;;;;;;10.35;5.80;;;32.60;63.40;;;;;;5073036;28;20175;-72
2022/05/07 08:28:51;;;;;;;9.80;5.47;;;31.90;65.70;;;;;;5072010;28;20202;-72
2022/05/07 08:31:18;;;;;;;6.13;4.63;;;31.90;65.00;;;;;;5071086;28;20198;-72
2022/05/07 08:33:44;;;;;;;7.28;4.50;;;31.10;65.50;;;;;;5072584;28;20306;-71
2022/05/07 08:36:10;;;;;;;8.65;4.85;;;31.20;66.10;;;;;;5072434;28;20215;-71
2022/05/07 08:38:36;;;;;;;9.57;4.45;;;31.00;66.70;;;;;;5060491;28;20182;-76
2022/05/07 08:41:02;;;;;;;7.78;5.40;;;30.50;66.80;;;;;;5062674;28;20241;-76
2022/05/07 08:43:39;;;;;;;7.50;5.43;;;30.70;66.90;;;;;;5070884;28;20219;-76
2022/05/07 08:46:16;;;;;;;5.47;3.88;;;31.60;65.10;;;;;;5072426;28;20198;-74
2022/05/07 08:48:43;;;;;;;9.40;4.80;;;31.90;62.30;;;;;;5070531;28;20578;-75
2022/05/07 08:51:09;;;;;;;8.52;5.70;;;32.10;62.50;;;;;;5071988;28;20715;-76
2022/05/07 08:53:34;;;;;;;9.15;5.60;;;32.10;61.80;;;;;;5072348;28;20193;-77
2022/05/07 08:56:00;;;;;;;7.18;5.32;;;32.20;62.50;;;;;;5070716;28;20289;-74
2022/05/07 08:58:26;;;;;;;8.60;4.53;;;32.20;61.90;;;;;;5070937;28;20199;-73
2022/05/07 09:00:52;;;;;;;9.05;6.15;;;31.90;63.20;;;;;;5071431;28;20221;-74
2022/05/07 09:03:17;;;;;;;8.23;5.05;;;32.30;62.80;;;;;;5064155;28;20217;-75
2022/05/07 09:05:43;;;;;;;13.23;7.82;;;32.80;62.10;;;;;;5069515;28;20607;-75
2022/05/07 09:08:11;;;;;;;15.52;9.73;;;32.80;61.60;;;;;;5068944;28;20881;-76
2022/05/07 09:10:39;;;;;;;9.85;5.63;;;32.60;62.40;;;;;;5070924;28;20210;-76
2022/05/07 09:13:08;;;;;;;9.43;5.88;;;32.20;61.80;;;;;;5071076;28;20199;-77
2022/05/07 09:15:34;;;;;;;11.85;5.75;;;31.30;62.90;;;;;;5069815;28;20207;-77
2022/05/07 09:18:00;;;;;;;8.73;5.60;;;31.20;63.90;;;;;;5077395;28;20535;-81
2022/05/07 09:20:26;;;;;;;11.68;5.53;;;31.10;64.20;;;;;;5057685;28;20198;-76
2022/05/07 09:22:54;;;;;;;9.93;6.18;;;31.00;64.30;;;;;;5078960;28;20213;-74
2022/05/07 09:25:21;;;;;;;8.48;5.20;;;30.90;65.20;;;;;;5072595;28;20714;-78
2022/05/07 09:27:47;;;;;;;8.07;5.28;;;30.10;65.70;;;;;;5064433;28;20272;-78
2022/05/07 09:30:20;;;;;;;6.95;4.68;;;29.70;67.00;;;;;;5063549;28;20254;-74
2022/05/07 09:32:50;;;;;;;9.27;5.93;;;29.80;66.80;;;;;;5070735;28;20592;-71
2022/05/07 09:38:01;;;;;;;9.38;4.70;;;28.30;68.60;;;;;;5064238;28;20735;-69
2022/05/07 09:40:28;;;;;;;7.43;5.28;;;28.70;68.30;;;;;;5071011;28;20203;-71
2022/05/07 09:42:57;;;;;;;7.07;4.82;;;28.70;68.90;;;;;;5071173;28;20261;-69
2022/05/07 09:45:30;;;;;;;5.47;3.85;;;28.80;69.40;;;;;;5070914;28;20233;-70
2022/05/07 09:47:58;;;;;;;9.80;6.13;;;28.90;69.50;;;;;;5069385;28;20267;-72
2022/05/07 09:50:43;;;;;;;10.85;5.90;;;28.50;69.80;;;;;;5067870;28;20688;-73
2022/05/07 09:58:49;;;;;;;6.45;4.60;;;27.70;71.80;;;;;;5065983;28;20214;-72
2022/05/07 10:01:21;;;;;;;7.80;4.40;;;28.00;71.60;;;;;;5064610;28;20601;-71
2022/05/07 10:04:42;;;;;;;7.72;4.50;;;28.80;70.70;;;;;;5065608;28;20195;-70
2022/05/07 10:07:40;;;;;;;8.48;4.90;;;28.80;70.30;;;;;;5033203;28;20210;-70
2022/05/07 10:10:27;;;;;;;4.47;3.63;;;28.30;70.20;;;;;;5072841;28;20199;-70
2022/05/07 10:13:05;;;;;;;5.93;3.97;;;28.30;70.90;;;;;;5062255;28;20205;-72
2022/05/07 10:15:31;;;;;;;6.07;4.40;;;28.30;70.90;;;;;;5070206;28;20207;-70
2022/05/07 10:17:57;;;;;;;5.18;3.95;;;28.40;71.20;;;;;;5070184;28;20171;-70
2022/05/07 10:20:23;;;;;;;9.57;4.28;;;28.70;71.40;;;;;;5070046;28;20671;-69
2022/05/07 10:22:55;;;;;;;5.82;4.75;;;28.90;71.00;;;;;;5069946;28;20210;-70
2022/05/07 10:25:20;;;;;;;7.47;4.72;;;28.00;72.60;;;;;;5070124;28;20286;-70
2022/05/07 10:27:50;;;;;;;5.63;4.10;;;28.00;73.30;;;;;;5060745;28;20281;-70
2022/05/07 10:30:19;;;;;;;5.80;4.18;;;28.40;73.30;;;;;;5069234;28;20737;-72
2022/05/07 10:33:02;;;;;;;10.43;4.03;;;28.50;72.10;;;;;;5052788;28;20262;-73
2022/05/07 10:35:53;;;;;;;5.13;3.88;;;28.60;71.90;;;;;;5070346;28;20207;-75
2022/05/07 10:38:28;;;;;;;4.82;3.30;;;28.10;72.30;;;;;;5069614;28;20279;-71
2022/05/07 10:40:55;;;;;;;6.13;4.10;;;28.30;72.10;;;;;;5062688;28;20221;-69
2022/05/07 10:43:33;;;;;;;7.95;3.80;;;28.30;71.80;;;;;;5051794;28;20203;-71
2022/05/07 10:46:02;;;;;;;6.00;4.38;;;28.20;72.60;;;;;;5070134;28;20226;-71
2022/05/07 10:48:27;;;;;;;5.47;4.22;;;28.00;72.50;;;;;;5067669;28;20217;-73
2022/05/07 10:50:57;;;;;;;6.60;4.60;;;27.70;73.50;;;;;;5068645;28;20313;-72
2022/05/07 10:53:23;;;;;;;7.82;4.72;;;27.50;74.10;;;;;;5070140;28;20210;-69
2022/05/07 10:55:52;;;;;;;7.65;4.32;;;27.00;76.10;;;;;;5066776;28;20207;-69
2022/05/07 10:58:30;;;;;;;6.78;4.93;;;26.80;77.40;;;;;;5065950;28;20203;-71
2022/05/07 11:00:57;;;;;;;8.75;5.13;;;26.60;78.00;;;;;;5060138;28;20239;-71
2022/05/07 11:03:27;;;;;;;6.10;4.30;;;26.60;78.50;;;;;;5056313;28;20215;-70
2022/05/07 11:06:00;;;;;;;7.53;4.50;;;26.80;78.60;;;;;;5069738;28;20209;-70
2022/05/07 11:08:26;;;;;;;5.28;4.05;;;26.80;78.50;;;;;;5069616;28;20167;-70
2022/05/07 11:11:10;;;;;;;4.65;3.63;;;26.80;77.00;;;;;;5086468;28;20199;-71
2022/05/07 11:13:55;;;;;;;5.70;3.78;;;26.90;77.30;;;;;;5073448;28;20211;-73
2022/05/07 11:16:22;;;;;;;6.30;4.85;;;27.00;77.20;;;;;;5089533;28;20211;-72
2022/05/07 11:18:51;;;;;;;6.22;4.70;;;27.00;77.40;;;;;;5067406;28;20206;-69
2022/05/07 11:21:25;;;;;;;6.05;4.20;;;27.20;77.90;;;;;;5069850;28;20273;-70
2022/05/07 11:23:59;;;;;;;5.55;3.92;;;26.40;78.50;;;;;;5069774;28;20201;-69
2022/05/07 11:26:25;;;;;;;6.07;3.72;;;26.10;78.80;;;;;;5068745;28;20203;-70
2022/05/07 11:28:52;;;;;;;7.05;4.53;;;26.00;79.40;;;;;;5067918;28;20227;-69
2022/05/07 11:31:34;;;;;;;5.60;4.85;;;26.00;80.20;;;;;;5071340;28;20665;-70
2022/05/07 11:34:08;;;;;;;9.70;7.50;;;25.70;81.30;;;;;;5068432;28;20313;-69
2022/05/07 11:36:35;;;;;;;6.68;5.00;;;25.60;81.50;;;;;;5070461;28;20207;-71
2022/05/07 11:39:07;;;;;;;7.53;4.05;;;25.60;81.30;;;;;;5078228;27;20642;-69
2022/05/07 11:41:34;;;;;;;6.10;4.30;;;25.70;82.20;;;;;;5061262;28;20222;-69
2022/05/07 11:46:55;;;;;;;5.85;3.90;;;26.40;81.30;;;;;;5060838;28;20244;-71
2022/05/07 11:49:35;;;;;;;9.10;4.50;;;26.70;80.50;;;;;;5060527;28;20210;-68
2022/05/07 11:52:08;;;;;;;7.15;4.18;;;26.20;79.60;;;;;;5058243;28;20214;-69
2022/05/07 11:54:34;;;;;;;7.47;4.45;;;26.00;81.40;;;;;;5062577;28;20223;-69
2022/05/07 11:56:59;;;;;;;4.53;4.00;;;26.40;81.60;;;;;;5092075;28;20163;-70
2022/05/07 11:59:25;;;;;;;8.38;4.07;;;26.50;81.60;;;;;;5060579;28;20204;-71
2022/05/07 12:01:51;;;;;;;7.95;4.78;;;26.40;81.50;;;;;;5067628;28;20625;-70
2022/05/07 12:04:16;;;;;;;5.47;3.42;;;26.10;81.70;;;;;;5091208;28;20202;-69
2022/05/07 12:06:54;;;;;;;4.85;3.33;;;26.00;81.50;;;;;;5075104;28;20264;-69
2022/05/07 12:09:19;;;;;;;6.55;4.30;;;25.60;81.70;;;;;;5073829;28;20329;-69
2022/05/07 12:11:45;;;;;;;3.67;3.25;;;25.50;83.10;;;;;;5063656;28;20706;-70
2022/05/07 12:14:10;;;;;;;4.40;3.60;;;25.70;83.10;;;;;;5061742;28;20240;-70
2022/05/07 12:19:31;;;;;;;5.90;4.20;;;26.10;83.10;;;;;;5062532;28;20218;-70
2022/05/07 12:30:13;;;;;;;8.02;4.65;;;26.30;84.10;;;;;;5087848;28;20230;-70
2022/05/07 12:32:43;;;;;;;5.15;3.60;;;26.70;83.30;;;;;;5074333;28;20204;-70
2022/05/07 12:35:09;;;;;;;5.93;4.68;;;26.70;83.20;;;;;;5073265;28;20702;-70
2022/05/07 12:37:37;;;;;;;7.82;5.00;;;26.80;83.60;;;;;;5073496;28;20217;-69
2022/05/07 12:40:03;;;;;;;8.02;4.75;;;26.80;82.60;;;;;;5072988;28;20272;-69
2022/05/07 12:42:29;;;;;;;8.90;4.90;;;26.50;81.20;;;;;;5073320;28;20298;-70
2022/05/07 12:44:55;;;;;;;5.13;3.97;;;26.20;80.80;;;;;;5072176;28;20732;-71
2022/05/07 12:47:20;;;;;;;5.93;4.40;;;26.10;81.00;;;;;;5072751;28;20270;-71
2022/05/07 12:49:46;;;;;;;5.35;4.30;;;25.80;81.10;;;;;;5079294;28;20206;-72
2022/05/07 12:52:11;;;;;;;5.90;3.85;;;25.80;82.50;;;;;;5092685;28;20210;-71
2022/05/07 12:54:37;;;;;;;6.47;4.90;;;26.00;82.90;;;;;;5073551;28;20210;-70
2022/05/07 12:57:04;;;;;;;6.20;4.38;;;26.00;82.80;;;;;;5071426;28;20201;-71
2022/05/07 12:59:30;;;;;;;5.15;4.00;;;26.00;82.50;;;;;;5072595;28;20268;-71
2022/05/07 13:01:57;;;;;;;4.82;3.95;;;26.10;83.50;;;;;;5076907;28;20687;-69
2022/05/07 13:04:24;;;;;;;5.47;3.30;;;25.90;83.70;;;;;;5072636;28;20297;-70
2022/05/07 13:06:54;;;;;;;4.85;3.63;;;26.10;86.10;;;;;;5083143;28;20566;-70
2022/05/07 13:09:19;;;;;;;5.80;5.05;;;25.90;85.50;;;;;;5081313;28;20195;-69
2022/05/07 13:11:45;;;;;;;5.55;4.43;;;25.60;86.60;;;;;;5071952;28;20191;-70
2022/05/07 13:14:11;;;;;;;7.53;4.05;;;25.50;87.90;;;;;;5071279;28;20203;-71
2022/05/07 13:16:36;;;;;;;6.10;3.80;;;25.70;88.30;;;;;;5072574;28;20895;-71
2022/05/07 13:19:02;;;;;;;7.35;5.40;;;25.80;87.40;;;;;;5071917;28;20202;-71
2022/05/07 13:21:27;;;;;;;13.38;7.45;;;25.60;87.40;;;;;;5072757;28;20632;-70
2022/05/07 13:23:53;;;;;;;7.13;5.50;;;25.70;88.10;;;;;;5072090;28;20225;-72
2022/05/07 13:26:18;;;;;;;9.45;6.30;;;25.90;87.10;;;;;;5071467;28;20174;-70
2022/05/07 13:28:44;;;;;;;5.60;4.28;;;26.00;87.60;;;;;;5075847;28;20207;-70
2022/05/07 13:31:09;;;;;;;13.88;5.65;;;26.00;87.80;;;;;;5072595;28;20198;-71